createdAt,value
2023-04-22T00:00:21.387Z,4.23
2023-04-22T00:02:48.840Z,4.20
2023-04-22T00:05:20.317Z,4.07
2023-04-22T00:07:48.007Z,4.70
2023-04-22T00:10:15.266Z,4.47
2023-04-22T00:12:42.787Z,4.13
2023-04-22T00:15:10.773Z,4.30
2023-04-22T00:17:37.962Z,3.80
2023-04-22T00:20:06.151Z,4.40
2023-04-22T00:22:33.362Z,4.20
2023-04-22T00:25:00.562Z,3.90
2023-04-22T00:27:27.889Z,4.33
2023-04-22T00:29:55.301Z,4.23
2023-04-22T00:32:22.647Z,4.30
2023-04-22T00:34:50.371Z,4.67
2023-04-22T00:37:18.134Z,4.37
2023-04-22T00:39:45.589Z,4.60
2023-04-22T00:42:14.300Z,4.33
2023-04-22T00:44:41.764Z,4.37
2023-04-22T00:47:10.071Z,4.70
2023-04-22T00:49:37.616Z,4.50
2023-04-22T00:52:05.217Z,4.10
2023-04-22T00:54:32.898Z,4.87
2023-04-22T00:57:00.190Z,4.20
2023-04-22T00:59:27.631Z,4.20
2023-04-22T01:01:55.017Z,4.37
2023-04-22T01:04:22.797Z,4.77
2023-04-22T01:06:50.010Z,4.63
2023-04-22T01:09:17.315Z,4.50
2023-04-22T01:11:44.752Z,4.10
2023-04-22T01:14:12.123Z,4.50
2023-04-22T01:16:39.882Z,4.43
2023-04-22T01:19:08.495Z,4.10
2023-04-22T01:21:36.111Z,4.30
2023-04-22T01:24:03.267Z,4.00
2023-04-22T01:26:30.550Z,4.37
2023-04-22T01:28:57.747Z,4.47
2023-04-22T01:31:25.205Z,4.13
2023-04-22T01:33:52.795Z,4.47
2023-04-22T01:36:20.132Z,4.10
2023-04-22T01:38:47.456Z,4.50
2023-04-22T01:41:14.965Z,4.40
2023-04-22T01:43:42.599Z,4.50
2023-04-22T01:46:10.121Z,4.70
2023-04-22T01:48:37.714Z,4.47
2023-04-22T01:51:04.880Z,4.60
2023-04-22T01:53:32.076Z,4.93
2023-04-22T01:56:00.460Z,5.37
2023-04-22T01:58:29.780Z,4.80
2023-04-22T02:00:57.356Z,5.10
2023-04-22T02:03:24.955Z,4.97
2023-04-22T02:05:52.430Z,4.60
2023-04-22T02:08:19.650Z,4.70
2023-04-22T02:10:46.859Z,5.43
2023-04-22T02:13:14.089Z,4.80
2023-04-22T02:15:41.386Z,5.47
2023-04-22T02:18:10.209Z,5.13
2023-04-22T02:20:37.560Z,5.33
2023-04-22T02:23:05.394Z,5.07
2023-04-22T02:25:32.608Z,5.50
2023-04-22T02:27:59.837Z,4.90
2023-04-22T02:30:27.070Z,5.40
2023-04-22T02:32:54.300Z,5.40
2023-04-22T02:35:21.522Z,5.70
2023-04-22T02:37:48.722Z,5.47
2023-04-22T02:40:16.112Z,5.37
2023-04-22T02:42:43.345Z,5.37
2023-04-22T02:45:10.816Z,5.43
2023-04-22T02:47:38.052Z,6.33
2023-04-22T02:50:05.433Z,5.87
2023-04-22T02:52:34.026Z,5.93
2023-04-22T02:55:01.754Z,5.87
2023-04-22T02:57:29.220Z,5.53
2023-04-22T02:59:57.139Z,5.80
2023-04-22T03:02:24.525Z,6.10
2023-04-22T03:04:54.374Z,6.57
2023-04-22T03:07:21.930Z,6.33
2023-04-22T03:09:49.691Z,6.20
2023-04-22T03:12:17.019Z,5.47
2023-04-22T03:14:44.166Z,5.83
2023-04-22T03:17:11.322Z,6.73
2023-04-22T03:19:38.729Z,6.43
2023-04-22T03:22:06.575Z,6.97
2023-04-22T03:24:33.714Z,5.93
2023-04-22T03:27:02.196Z,6.87
2023-04-22T03:29:29.439Z,7.23
2023-04-22T03:31:56.727Z,6.73
2023-04-22T03:34:23.920Z,6.70
2023-04-22T03:36:51.067Z,6.27
2023-04-22T03:39:18.216Z,6.33
2023-04-22T03:41:45.462Z,5.90
2023-04-22T03:44:12.635Z,6.70
2023-04-22T03:46:39.805Z,6.20
2023-04-22T03:49:07.449Z,6.77
2023-04-22T03:51:34.954Z,6.23
2023-04-22T03:54:02.245Z,6.47
2023-04-22T03:56:29.479Z,6.13
2023-04-22T03:58:56.693Z,6.53
2023-04-22T04:01:23.920Z,5.80
2023-04-22T04:03:51.284Z,6.43
2023-04-22T04:06:18.603Z,6.57
2023-04-22T04:08:46.571Z,6.57
2023-04-22T04:11:13.802Z,6.60
2023-04-22T04:13:40.990Z,5.87
2023-04-22T04:16:08.517Z,5.97
2023-04-22T04:18:36.637Z,5.83
2023-04-22T04:21:04.273Z,6.13
2023-04-22T04:23:32.179Z,6.43
2023-04-22T04:26:01.192Z,6.07
2023-04-22T04:28:30.187Z,5.40
2023-04-22T04:30:57.543Z,5.60
2023-04-22T04:33:24.739Z,6.03
2023-04-22T04:35:52.217Z,5.90
2023-04-22T04:38:19.670Z,6.00
2023-04-22T04:40:46.913Z,6.27
2023-04-22T04:43:14.386Z,6.03
2023-04-22T04:45:48.497Z,6.80
2023-04-22T04:48:16.858Z,6.40
2023-04-22T04:50:44.435Z,6.17
2023-04-22T04:53:14.941Z,6.53
2023-04-22T04:55:42.516Z,6.70
2023-04-22T04:58:10.044Z,6.90
2023-04-22T05:00:37.346Z,7.23
2023-04-22T05:03:04.978Z,7.50
2023-04-22T05:05:32.615Z,7.37
2023-04-22T05:07:59.797Z,7.50
2023-04-22T05:10:27.035Z,7.33
2023-04-22T05:12:54.657Z,7.80
2023-04-22T05:15:22.193Z,9.57
2023-04-22T05:17:49.477Z,9.73
2023-04-22T05:20:16.688Z,11.10
2023-04-22T05:22:45.848Z,10.73
2023-04-22T05:25:13.024Z,8.97
2023-04-22T05:27:41.381Z,7.63
2023-04-22T05:30:08.978Z,7.97
2023-04-22T05:32:36.154Z,7.30
2023-04-22T05:35:03.809Z,7.90
2023-04-22T05:37:31.089Z,7.63
2023-04-22T05:40:16.140Z,7.43
2023-04-22T05:42:43.398Z,8.10
2023-04-22T05:45:10.767Z,7.77
2023-04-22T05:47:38.073Z,6.93
2023-04-22T05:50:06.095Z,7.50
2023-04-22T05:52:34.082Z,7.20
2023-04-22T05:55:01.712Z,7.73
2023-04-22T05:57:28.983Z,7.43
2023-04-22T05:59:56.184Z,7.83
2023-04-22T06:02:23.823Z,7.93
2023-04-22T06:04:51.292Z,8.00
2023-04-22T06:07:18.681Z,7.57
2023-04-22T06:09:46.005Z,7.63
2023-04-22T06:12:13.212Z,8.00
2023-04-22T06:14:40.441Z,8.23
2023-04-22T06:17:10.824Z,7.83
2023-04-22T06:19:38.209Z,7.60
2023-04-22T06:22:23.148Z,8.20
2023-04-22T06:24:50.303Z,7.43
2023-04-22T06:27:17.637Z,8.33
2023-04-22T06:29:44.779Z,7.90
2023-04-22T06:32:14.286Z,8.10
2023-04-22T06:34:43.534Z,7.70
2023-04-22T06:37:10.755Z,7.60
2023-04-22T06:39:41.445Z,7.50
2023-04-22T06:42:11.173Z,8.20
2023-04-22T06:44:38.504Z,7.93
2023-04-22T06:47:05.874Z,8.00
2023-04-22T06:49:33.184Z,7.93
2023-04-22T06:52:00.451Z,7.27
2023-04-22T06:54:27.876Z,7.27
2023-04-22T06:56:55.586Z,7.43
2023-04-22T06:59:22.929Z,7.20
2023-04-22T07:01:50.236Z,7.63
2023-04-22T07:04:17.455Z,7.83
2023-04-22T07:06:44.669Z,7.63
2023-04-22T07:09:12.119Z,7.40
2023-04-22T07:11:49.749Z,8.10
2023-04-22T07:14:17.012Z,8.10
2023-04-22T07:16:44.243Z,7.63
2023-04-22T07:19:14.463Z,8.00
2023-04-22T07:21:41.851Z,6.97
2023-04-22T07:24:12.144Z,7.43
2023-04-22T07:26:43.357Z,7.30
2023-04-22T07:29:11.420Z,7.20
2023-04-22T07:31:41.246Z,7.45
2023-04-22T07:34:12.922Z,7.35
2023-04-22T07:36:42.533Z,7.35
2023-04-22T07:39:12.600Z,7.28
2023-04-22T07:41:39.920Z,6.68
2023-04-22T07:44:07.201Z,6.80
2023-04-22T07:46:34.890Z,6.32
2023-04-22T07:49:02.107Z,6.97
2023-04-22T07:51:29.802Z,6.45
2023-04-22T07:53:56.982Z,6.57
2023-04-22T07:56:26.252Z,6.55
2023-04-22T07:58:53.521Z,6.20
2023-04-22T08:01:20.765Z,6.25
2023-04-22T08:04:01.072Z,5.60
2023-04-22T08:06:32.076Z,6.78
2023-04-22T08:08:59.360Z,5.25
2023-04-22T08:11:26.761Z,6.38
2023-04-22T08:13:53.960Z,5.85
2023-04-22T08:16:29.946Z,5.32
2023-04-22T08:19:01.503Z,5.60
2023-04-22T08:21:38.329Z,5.47
2023-04-22T08:24:05.812Z,5.35
2023-04-22T08:26:33.257Z,5.47
2023-04-22T08:29:01.381Z,5.32
2023-04-22T08:31:28.615Z,5.10
2023-04-22T08:33:56.313Z,5.13
2023-04-22T08:36:25.895Z,5.18
2023-04-22T08:38:53.114Z,4.85
2023-04-22T08:41:20.438Z,4.95
2023-04-22T08:43:47.637Z,6.63
2023-04-22T08:46:15.930Z,4.38
2023-04-22T08:48:43.318Z,4.20
2023-04-22T08:51:10.800Z,3.88
2023-04-22T08:53:38.290Z,4.72
2023-04-22T08:56:06.371Z,3.95
2023-04-22T08:58:35.524Z,4.68
2023-04-22T09:01:06.768Z,5.72
2023-04-22T09:03:35.889Z,5.05
2023-04-22T09:06:06.405Z,4.55
2023-04-22T09:08:33.613Z,5.10
2023-04-22T09:11:00.856Z,4.70
2023-04-22T09:13:28.623Z,4.28
2023-04-22T09:15:59.803Z,4.03
2023-04-22T09:18:37.509Z,4.10
2023-04-22T09:21:04.746Z,4.88
2023-04-22T09:23:32.047Z,4.93
2023-04-22T09:25:59.716Z,4.53
2023-04-22T09:28:27.143Z,4.20
2023-04-22T09:30:54.323Z,4.70
2023-04-22T09:33:21.541Z,4.43
2023-04-22T09:35:48.729Z,4.75
2023-04-22T09:38:16.749Z,4.65
2023-04-22T09:40:45.000Z,4.53
2023-04-22T09:43:12.303Z,5.40
2023-04-22T09:45:41.298Z,5.68
2023-04-22T09:48:12.563Z,5.53
2023-04-22T09:50:40.812Z,4.88
2023-04-22T09:53:09.317Z,5.25
2023-04-22T09:55:37.979Z,4.75
2023-04-22T09:58:07.380Z,5.88
2023-04-22T10:00:35.852Z,5.95
2023-04-22T10:03:03.347Z,4.90
2023-04-22T10:05:30.813Z,4.82
2023-04-22T10:07:58.225Z,5.22
2023-04-22T10:10:25.628Z,4.95
2023-04-22T10:12:53.308Z,4.78
2023-04-22T10:15:20.486Z,4.43
2023-04-22T10:17:47.963Z,4.53
2023-04-22T10:20:18.173Z,4.90
2023-04-22T10:22:45.576Z,5.07
2023-04-22T10:25:15.126Z,4.38
2023-04-22T10:27:42.809Z,4.28
2023-04-22T10:30:10.804Z,4.75
2023-04-22T10:32:38.456Z,4.00
2023-04-22T10:35:10.047Z,4.88
2023-04-22T10:37:39.063Z,4.43
2023-04-22T10:40:13.942Z,4.82
2023-04-22T10:42:42.111Z,5.25
2023-04-22T10:45:14.208Z,4.70
2023-04-22T10:47:42.187Z,4.43
2023-04-22T10:50:10.334Z,4.35
2023-04-22T10:52:37.684Z,4.75
2023-04-22T10:55:05.236Z,5.50
2023-04-22T10:57:41.212Z,4.68
2023-04-22T11:00:17.512Z,4.75
2023-04-22T11:02:48.776Z,4.85
2023-04-22T11:05:20.222Z,5.28
2023-04-22T11:07:50.868Z,4.13
2023-04-22T11:10:43.068Z,4.90
2023-04-22T11:13:13.984Z,5.07
2023-04-22T11:15:41.912Z,5.32
2023-04-22T11:18:10.906Z,5.15
2023-04-22T11:20:38.200Z,4.10
2023-04-22T11:23:05.458Z,4.53
2023-04-22T11:25:32.995Z,5.13
2023-04-22T11:28:00.328Z,4.93
2023-04-22T11:30:28.618Z,4.68
2023-04-22T11:32:58.298Z,4.63
2023-04-22T11:35:29.950Z,4.47
2023-04-22T11:37:59.025Z,4.90
2023-04-22T11:40:32.133Z,4.78
2023-04-22T11:43:01.643Z,4.28
2023-04-22T11:45:32.945Z,4.50
2023-04-22T11:48:00.609Z,4.82
2023-04-22T11:50:29.033Z,4.55
2023-04-22T11:52:57.277Z,4.88
2023-04-22T11:55:34.865Z,5.20
2023-04-22T11:58:22.358Z,5.05
2023-04-22T12:00:50.979Z,5.68
2023-04-22T12:03:22.483Z,5.90
2023-04-22T12:05:57.530Z,5.20
2023-04-22T12:08:26.369Z,4.60
2023-04-22T12:10:57.462Z,4.57
2023-04-22T12:13:26.017Z,5.55
2023-04-22T12:15:58.083Z,5.43
2023-04-22T12:18:32.151Z,5.38
2023-04-22T12:21:05.529Z,5.30
2023-04-22T12:23:41.559Z,5.40
2023-04-22T12:26:08.992Z,5.55
2023-04-22T12:28:38.351Z,5.53
2023-04-22T12:31:05.815Z,5.80
2023-04-22T12:33:33.465Z,5.97
2023-04-22T12:36:00.681Z,5.20
2023-04-22T12:38:27.841Z,5.25
2023-04-22T12:40:55.653Z,5.30
2023-04-22T12:43:22.854Z,5.68
2023-04-22T12:45:50.415Z,5.30
2023-04-22T12:48:17.674Z,5.95
2023-04-22T12:50:44.903Z,5.38
2023-04-22T12:53:12.173Z,5.53
2023-04-22T12:55:39.518Z,5.10
2023-04-22T12:58:06.699Z,5.68
2023-04-22T13:00:33.951Z,5.82
2023-04-22T13:03:01.369Z,5.20
2023-04-22T13:05:28.781Z,6.38
2023-04-22T13:08:06.577Z,6.25
2023-04-22T13:10:35.276Z,5.40
2023-04-22T13:13:17.598Z,6.03
2023-04-22T13:15:45.632Z,6.15
2023-04-22T13:18:13.028Z,5.97
2023-04-22T13:20:41.716Z,5.75
2023-04-22T13:23:09.723Z,5.50
2023-04-22T13:25:37.107Z,6.75
2023-04-22T13:28:04.308Z,6.53
2023-04-22T13:30:34.780Z,6.43
2023-04-22T13:33:02.035Z,6.60
2023-04-22T13:35:29.304Z,7.18
2023-04-22T13:37:56.947Z,6.22
2023-04-22T13:40:24.211Z,6.25
2023-04-22T13:42:51.358Z,6.30
2023-04-22T13:45:18.673Z,5.28
2023-04-22T13:47:45.960Z,5.40
2023-04-22T13:50:13.128Z,5.72
2023-04-22T13:52:40.362Z,5.70
2023-04-22T13:55:07.880Z,6.07
2023-04-22T13:57:35.183Z,5.18
2023-04-22T14:00:02.421Z,6.00
2023-04-22T14:02:29.685Z,5.00
2023-04-22T14:04:56.934Z,5.40
2023-04-22T14:07:24.315Z,4.72
2023-04-22T14:09:51.486Z,4.85
2023-04-22T14:12:18.668Z,4.95
2023-04-22T14:14:45.977Z,4.13
2023-04-22T14:17:13.243Z,5.00
2023-04-22T14:19:40.707Z,4.60
2023-04-22T14:22:08.090Z,4.97
2023-04-22T14:24:35.295Z,4.70
2023-04-22T14:27:02.502Z,4.82
2023-04-22T14:29:32.858Z,4.90
2023-04-22T14:32:00.262Z,5.03
2023-04-22T14:34:27.558Z,4.90
2023-04-22T14:36:54.855Z,4.65
2023-04-22T14:39:22.140Z,4.63
2023-04-22T14:41:49.697Z,4.70
2023-04-22T14:44:17.257Z,4.55
2023-04-22T14:46:45.207Z,4.65
2023-04-22T14:49:12.391Z,4.90
2023-04-22T14:51:39.709Z,4.72
2023-04-22T14:54:07.014Z,4.35
2023-04-22T14:56:34.339Z,5.05
2023-04-22T14:59:01.677Z,5.72
2023-04-22T15:01:28.965Z,5.13
2023-04-22T15:03:56.170Z,5.50
2023-04-22T15:06:23.743Z,4.97
2023-04-22T15:08:54.224Z,5.20
2023-04-22T15:11:21.473Z,5.30
2023-04-22T15:13:50.123Z,5.15
2023-04-22T15:16:17.417Z,5.65
2023-04-22T15:18:44.645Z,5.35
2023-04-22T15:21:11.976Z,4.85
2023-04-22T15:23:39.178Z,5.30
2023-04-22T15:26:06.818Z,5.30
2023-04-22T15:28:34.295Z,4.90
2023-04-22T15:31:01.960Z,5.72
2023-04-22T15:33:29.172Z,5.18
2023-04-22T15:35:56.374Z,5.35
2023-04-22T15:38:24.752Z,5.20
2023-04-22T15:40:51.928Z,5.10
2023-04-22T15:43:19.095Z,4.90
2023-04-22T15:45:46.248Z,4.68
2023-04-22T15:48:13.403Z,4.57
2023-04-22T15:50:41.033Z,4.55
2023-04-22T15:53:08.416Z,4.22
2023-04-22T15:55:35.956Z,4.13
2023-04-22T15:58:03.132Z,4.28
2023-04-22T16:00:30.477Z,4.47
2023-04-22T16:02:58.086Z,4.13
2023-04-22T16:05:25.502Z,4.18
2023-04-22T16:07:53.331Z,4.25
2023-04-22T16:10:20.847Z,3.90
2023-04-22T16:12:48.221Z,4.00
2023-04-22T16:15:16.513Z,4.10
2023-04-22T16:17:44.350Z,4.15
2023-04-22T16:20:11.976Z,4.63
2023-04-22T16:22:39.616Z,4.65
2023-04-22T16:25:07.146Z,4.90
2023-04-22T16:27:34.540Z,4.18
2023-04-22T16:30:04.912Z,4.03
2023-04-22T16:32:32.284Z,4.93
2023-04-22T16:34:59.453Z,5.18
2023-04-22T16:37:27.556Z,4.78
2023-04-22T16:39:55.270Z,4.93
2023-04-22T16:42:22.589Z,4.95
2023-04-22T16:44:51.353Z,4.53
2023-04-22T16:47:18.693Z,4.90
2023-04-22T16:49:46.370Z,4.75
2023-04-22T16:52:13.649Z,4.50
2023-04-22T16:54:42.496Z,6.38
2023-04-22T16:57:10.562Z,6.72
2023-04-22T16:59:38.905Z,8.60
2023-04-22T17:02:06.394Z,7.53
2023-04-22T17:04:33.688Z,8.20
2023-04-22T17:07:00.975Z,6.70
2023-04-22T17:09:28.321Z,6.97
2023-04-22T17:11:56.159Z,7.20
2023-04-22T17:14:23.367Z,6.97
2023-04-22T17:16:50.627Z,5.95
2023-04-22T17:19:17.833Z,6.20
2023-04-22T17:21:45.133Z,5.97
2023-04-22T17:24:12.313Z,6.50
2023-04-22T17:26:39.778Z,7.43
2023-04-22T17:29:07.029Z,6.80
2023-04-22T17:31:34.579Z,8.30
2023-04-22T17:34:01.757Z,11.68
2023-04-22T17:36:29.001Z,9.95
2023-04-22T17:38:56.177Z,9.57
2023-04-22T17:41:23.381Z,9.05
2023-04-22T17:43:50.630Z,9.38
2023-04-22T17:46:17.902Z,10.23
2023-04-22T17:48:46.808Z,8.75
2023-04-22T17:51:14.408Z,10.20
2023-04-22T17:53:42.091Z,9.30
2023-04-22T17:56:09.586Z,16.67
2023-04-22T17:58:39.955Z,22.67
2023-04-22T18:01:07.408Z,29.08
2023-04-22T18:03:35.615Z,31.33
2023-04-22T18:06:02.992Z,25.30
2023-04-22T18:08:30.763Z,18.60
2023-04-22T18:10:58.658Z,16.58
2023-04-22T18:13:25.815Z,15.52
2023-04-22T18:15:53.032Z,13.07
2023-04-22T18:18:20.224Z,15.02
2023-04-22T18:20:47.514Z,18.15
2023-04-22T18:23:14.668Z,21.05
2023-04-22T18:25:44.377Z,21.63
2023-04-22T18:28:11.638Z,27.58
2023-04-22T18:30:38.890Z,43.03
2023-04-22T18:33:06.537Z,55.20
2023-04-22T18:35:36.196Z,60.05
2023-04-22T18:38:03.469Z,63.55
2023-04-22T18:40:33.186Z,72.45
2023-04-22T18:43:00.692Z,66.30
2023-04-22T18:45:27.951Z,73.68
2023-04-22T18:47:55.443Z,74.82
2023-04-22T18:50:22.734Z,76.53
2023-04-22T18:52:49.915Z,85.35
2023-04-22T18:55:17.123Z,85.20
2023-04-22T18:57:44.307Z,75.68
2023-04-22T19:00:13.141Z,73.80
2023-04-22T19:02:42.403Z,72.85
2023-04-22T19:05:10.231Z,71.25
2023-04-22T19:07:38.347Z,75.75
2023-04-22T19:10:05.843Z,79.70
2023-04-22T19:12:33.021Z,78.57
2023-04-22T19:15:00.388Z,72.50
2023-04-22T19:17:28.019Z,72.70
2023-04-22T19:19:55.419Z,70.85
2023-04-22T19:22:22.912Z,62.83
2023-04-22T19:24:50.488Z,55.63
2023-04-22T19:27:17.672Z,53.28
2023-04-22T19:29:51.143Z,47.90
2023-04-22T19:32:18.561Z,42.50
2023-04-22T19:34:47.264Z,40.95
2023-04-22T19:37:14.742Z,38.15
2023-04-22T19:39:42.242Z,39.88
2023-04-22T19:42:09.657Z,38.97
2023-04-22T19:44:37.098Z,39.58
2023-04-22T19:47:04.370Z,36.13
2023-04-22T19:49:32.745Z,34.22
2023-04-22T19:52:02.156Z,33.25
2023-04-22T19:54:30.235Z,32.55
2023-04-22T19:56:58.526Z,30.77
2023-04-22T19:59:28.002Z,30.55
2023-04-22T20:01:55.460Z,33.28
2023-04-22T20:04:23.180Z,32.60
2023-04-22T20:06:51.654Z,33.28
2023-04-22T20:09:19.114Z,31.95
2023-04-22T20:11:46.889Z,33.70
2023-04-22T20:14:14.174Z,34.00
2023-04-22T20:16:42.593Z,36.38
2023-04-22T20:19:11.458Z,37.72
2023-04-22T20:21:39.915Z,36.05
2023-04-22T20:24:07.893Z,36.50
2023-04-22T20:26:35.132Z,36.17
2023-04-22T20:29:03.283Z,38.13
2023-04-22T20:31:30.694Z,34.97
2023-04-22T20:33:58.093Z,34.17
2023-04-22T20:36:26.190Z,34.90
2023-04-22T20:38:54.907Z,27.93
2023-04-22T20:41:24.722Z,29.50
2023-04-22T20:43:52.498Z,35.23
2023-04-22T20:46:22.833Z,41.53
2023-04-22T20:48:50.340Z,41.13
2023-04-22T20:51:17.544Z,41.70
2023-04-22T20:53:45.465Z,40.97
2023-04-22T20:56:13.292Z,38.73
2023-04-22T20:58:40.811Z,37.40
2023-04-22T21:01:12.268Z,39.43
2023-04-22T21:03:39.860Z,41.43
2023-04-22T21:06:08.612Z,40.77
2023-04-22T21:08:39.217Z,40.07
2023-04-22T21:11:06.785Z,44.50
2023-04-22T21:13:34.727Z,56.07
2023-04-22T21:16:01.916Z,58.20
2023-04-22T21:18:30.437Z,54.77
2023-04-22T21:20:58.270Z,50.27
2023-04-22T21:23:26.740Z,41.13
2023-04-22T21:25:57.855Z,35.33
2023-04-22T21:28:25.360Z,30.80
2023-04-22T21:30:52.952Z,31.43
2023-04-22T21:33:20.627Z,36.30
2023-04-22T21:35:48.090Z,46.90
2023-04-22T21:38:16.437Z,47.30
2023-04-22T21:40:43.840Z,53.20
2023-04-22T21:43:11.029Z,52.87
2023-04-22T21:45:38.382Z,54.83
2023-04-22T21:48:05.854Z,52.77
2023-04-22T21:50:33.122Z,53.10
2023-04-22T21:53:00.569Z,53.03
2023-04-22T21:55:27.760Z,50.67
2023-04-22T21:57:55.683Z,48.57
2023-04-22T22:00:24.857Z,49.10
2023-04-22T22:02:53.127Z,44.87
2023-04-22T22:05:20.890Z,45.27
2023-04-22T22:07:48.850Z,42.67
2023-04-22T22:10:20.643Z,42.57
2023-04-22T22:12:48.229Z,41.30
2023-04-22T22:15:16.312Z,40.70
2023-04-22T22:17:44.119Z,38.53
2023-04-22T22:20:12.855Z,37.90
2023-04-22T22:22:40.442Z,36.13
2023-04-22T22:25:09.010Z,36.90
2023-04-22T22:27:36.574Z,34.73
2023-04-22T22:30:03.980Z,35.17
2023-04-22T22:32:31.401Z,33.53
2023-04-22T22:34:59.243Z,34.93
2023-04-22T22:37:26.485Z,33.23
2023-04-22T22:39:53.662Z,34.50
2023-04-22T22:42:20.851Z,32.30
2023-04-22T22:44:48.139Z,30.87
2023-04-22T22:47:17.617Z,30.07
2023-04-22T22:49:45.437Z,29.77
2023-04-22T22:52:13.043Z,30.13
2023-04-22T22:54:40.878Z,30.73
2023-04-22T22:57:08.569Z,31.07
2023-04-22T22:59:36.367Z,30.37
2023-04-22T23:02:04.117Z,30.80
2023-04-22T23:04:36.774Z,34.23
2023-04-22T23:07:04.118Z,30.03
2023-04-22T23:09:31.250Z,29.13
2023-04-22T23:11:58.593Z,29.70
2023-04-22T23:14:26.993Z,29.87
2023-04-22T23:16:54.458Z,28.13
2023-04-22T23:19:21.821Z,25.60
2023-04-22T23:21:49.409Z,24.00
2023-04-22T23:24:17.208Z,25.57
2023-04-22T23:26:44.550Z,26.63
2023-04-22T23:29:11.799Z,30.43
2023-04-22T23:31:40.727Z,32.87
2023-04-22T23:34:08.120Z,35.23
2023-04-22T23:36:39.226Z,36.60
2023-04-22T23:39:09.808Z,37.83
2023-04-22T23:41:37.128Z,36.37
2023-04-22T23:44:04.313Z,36.77
2023-04-22T23:46:31.815Z,39.03
2023-04-22T23:48:59.509Z,38.30
2023-04-22T23:51:28.371Z,35.47
2023-04-22T23:53:55.591Z,31.90
2023-04-22T23:56:23.035Z,27.93
2023-04-22T23:58:51.146Z,30.43
